Time;durP1;ratioP1;P1;durP2;ratioP2;P2;SDS_P1;SDS_P2;PMS_P1;PMS_P2;Temp;Humidity;BMP_temperature;BMP_pressure;BME280_temperature;BME280_humidity;BME280_pressure;Samples;Min_cycle;Max_cycle;Signal;HPM_P1;HPM_P2
2022/11/23 00:01:35;;;;;;;;;;;6.60;99.90;;;;;;5050867;28;20019;-62
2022/11/23 00:04:03;;;;;;;;;;;6.70;99.90;;;;;;5051416;28;19974;-62
2022/11/23 00:06:31;;;;;;;;;;;6.70;99.90;;;;;;5051626;28;19968;-62
2022/11/23 00:08:59;;;;;;;;;;;6.70;99.90;;;;;;5051321;28;19972;-62
2022/11/23 00:11:27;;;;;;;;;;;6.70;99.90;;;;;;5039238;28;20604;-62
2022/11/23 00:13:55;;;;;;;;;;;6.70;99.90;;;;;;5046104;28;19964;-61
2022/11/23 00:16:25;;;;;;;;;;;6.70;99.90;;;;;;5051335;28;20055;-61
2022/11/23 00:18:53;;;;;;;;;;;6.90;99.90;;;;;;5051160;28;19972;-62
2022/11/23 00:21:22;;;;;;;;;;;7.10;99.90;;;;;;5050835;28;19990;-62
2022/11/23 00:23:49;;;;;;;;;;;7.20;99.90;;;;;;5051471;28;19973;-62
2022/11/23 00:26:17;;;;;;;;;;;7.10;99.90;;;;;;5035690;28;19969;-62
2022/11/23 00:28:45;;;;;;;;;;;7.00;99.90;;;;;;5030754;28;20450;-62
2022/11/23 00:31:14;;;;;;;;;;;7.20;99.90;;;;;;5030478;28;20079;-61
2022/11/23 00:33:47;;;;;;;;;;;7.20;99.90;;;;;;5050245;28;19972;-61
2022/11/23 00:36:16;;;;;;;;;;;7.40;99.90;;;;;;5051254;28;19972;-61
2022/11/23 00:38:44;;;;;;;;;;;7.30;99.90;;;;;;5050892;28;19978;-62
2022/11/23 00:41:12;;;;;;;;;;;7.50;99.90;;;;;;5050560;28;19982;-62
2022/11/23 00:43:40;;;;;;;;;;;7.50;99.90;;;;;;5051159;28;19971;-61
2022/11/23 00:46:10;;;;;;;;;;;7.50;99.90;;;;;;5050996;28;20508;-62
2022/11/23 00:48:38;;;;;;;;;;;7.40;99.90;;;;;;5050731;28;19976;-61
2022/11/23 00:51:08;;;;;;;;;;;7.20;99.90;;;;;;5050375;28;19975;-62
2022/11/23 00:53:36;;;;;;;;;;;7.10;99.90;;;;;;5051111;28;19968;-62
2022/11/23 00:56:04;;;;;;;;;;;7.20;99.90;;;;;;5050919;28;19974;-62
2022/11/23 00:58:32;;;;;;;;;;;7.10;99.90;;;;;;5050855;28;19974;-62
2022/11/23 01:01:00;;;;;;;;;;;7.00;99.90;;;;;;5053169;28;19972;-62
2022/11/23 01:03:28;;;;;;;;;;;7.00;99.90;;;;;;5054699;28;19995;-62
2022/11/23 01:05:56;;;;;;;;;;;6.90;99.90;;;;;;5054515;28;19979;-62
2022/11/23 01:08:25;;;;;;;;;;;7.00;99.90;;;;;;5054295;28;19969;-62
2022/11/23 01:10:57;;;;;;;;;;;7.00;99.90;;;;;;5042634;28;19963;-61
2022/11/23 01:13:25;;;;;;;;;;;6.90;99.90;;;;;;5054146;28;19976;-62
2022/11/23 01:15:53;;;;;;;;;;;6.80;99.90;;;;;;5054123;28;19972;-61
2022/11/23 01:18:21;;;;;;;;;;;6.90;99.90;;;;;;5054067;28;19978;-62
2022/11/23 01:20:49;;;;;;;;;;;6.80;99.90;;;;;;5053560;28;19972;-62
2022/11/23 01:23:16;;;;;;;;;;;6.80;99.90;;;;;;5053870;28;20377;-62
2022/11/23 01:25:46;;;;;;;;;;;6.90;99.90;;;;;;5054338;28;20049;-62
2022/11/23 01:28:14;;;;;;;;;;;6.90;99.90;;;;;;5053732;28;19978;-61
2022/11/23 01:30:41;;;;;;;;;;;6.80;99.90;;;;;;5053358;28;19974;-62
2022/11/23 01:33:09;;;;;;;;;;;6.80;99.90;;;;;;5053950;28;20352;-62
2022/11/23 01:35:37;;;;;;;;;;;6.70;99.90;;;;;;5053823;28;19979;-62
2022/11/23 01:38:05;;;;;;;;;;;6.70;99.90;;;;;;5053483;28;19968;-62
2022/11/23 01:40:39;;;;;;;;;;;6.80;99.90;;;;;;5053131;28;20075;-62
2022/11/23 01:43:13;;;;;;;;;;;6.90;99.90;;;;;;5053634;28;20059;-61
2022/11/23 01:45:41;;;;;;;;;;;6.90;99.90;;;;;;5045807;28;20445;-61
2022/11/23 01:48:12;;;;;;;;;;;6.90;99.90;;;;;;5053342;28;19972;-62
2022/11/23 01:50:40;;;;;;;;;;;6.90;99.90;;;;;;5053124;28;19986;-61
2022/11/23 01:53:08;;;;;;;;;;;7.00;99.90;;;;;;5053509;28;19974;-61
2022/11/23 01:55:36;;;;;;;;;;;6.90;99.90;;;;;;5053547;28;20008;-61
2022/11/23 01:58:05;;;;;;;;;;;7.00;99.90;;;;;;5053085;28;20469;-61
2022/11/23 02:00:34;;;;;;;;;;;6.90;99.90;;;;;;5052602;28;20007;-62
2022/11/23 02:03:04;;;;;;;;;;;6.90;99.90;;;;;;5053417;28;19975;-62
2022/11/23 02:05:33;;;;;;;;;;;6.80;99.90;;;;;;5053460;28;19968;-62
2022/11/23 02:08:01;;;;;;;;;;;6.90;99.90;;;;;;5053081;28;19968;-62
2022/11/23 02:10:30;;;;;;;;;;;6.80;99.90;;;;;;5052509;28;19970;-61
2022/11/23 02:13:00;;;;;;;;;;;6.80;99.90;;;;;;5053042;28;20471;-61
2022/11/23 02:15:28;;;;;;;;;;;6.80;99.90;;;;;;5052684;28;20019;-62
2022/11/23 02:17:58;;;;;;;;;;;6.90;99.90;;;;;;5052910;28;19975;-62
2022/11/23 02:20:26;;;;;;;;;;;6.90;99.90;;;;;;5052426;28;20093;-62
2022/11/23 02:22:58;;;;;;;;;;;6.90;99.90;;;;;;5053174;28;19982;-62
2022/11/23 02:25:32;;;;;;;;;;;6.80;99.90;;;;;;5053107;28;19968;-61
2022/11/23 02:28:01;;;;;;;;;;;6.80;99.90;;;;;;5052550;28;19995;-62
2022/11/23 02:30:30;;;;;;;;;;;6.80;99.90;;;;;;5051888;28;19991;-62
2022/11/23 02:32:57;;;;;;;;;;;6.90;99.90;;;;;;5033001;28;19976;-62
2022/11/23 02:35:25;;;;;;;;;;;6.90;99.90;;;;;;5032806;28;20066;-62
2022/11/23 02:37:53;;;;;;;;;;;7.00;99.90;;;;;;5032604;28;19975;-63
2022/11/23 02:40:25;;;;;;;;;;;7.00;99.90;;;;;;5031980;28;19979;-62
2022/11/23 02:42:53;;;;;;;;;;;7.20;99.90;;;;;;5039172;28;19971;-62
2022/11/23 02:45:27;;;;;;;;;;;7.20;99.90;;;;;;5052147;28;19972;-62
2022/11/23 02:47:55;;;;;;;;;;;7.30;99.90;;;;;;5052199;28;19968;-63
2022/11/23 02:50:23;;;;;;;;;;;7.20;99.90;;;;;;5051822;28;19974;-62
2022/11/23 02:52:50;;;;;;;;;;;7.10;99.90;;;;;;5052340;28;20082;-61
2022/11/23 02:55:18;;;;;;;;;;;7.00;99.90;;;;;;5052383;28;19968;-62
2022/11/23 02:57:46;;;;;;;;;;;6.90;99.90;;;;;;5052116;28;19995;-62
2022/11/23 03:00:14;;;;;;;;;;;6.90;99.90;;;;;;5051596;28;19979;-62
2022/11/23 03:02:43;;;;;;;;;;;6.90;99.90;;;;;;5052313;28;20463;-62
2022/11/23 03:05:11;;;;;;;;;;;6.90;99.90;;;;;;5051927;28;19968;-62
2022/11/23 03:07:38;;;;;;;;;;;7.00;99.90;;;;;;5052129;28;19994;-61
2022/11/23 03:10:07;;;;;;;;;;;7.00;99.90;;;;;;5051365;28;19968;-61
2022/11/23 03:12:35;;;;;;;;;;;6.90;99.90;;;;;;5051982;28;19972;-62
2022/11/23 03:15:03;;;;;;;;;;;6.90;99.90;;;;;;5051846;28;19971;-62
2022/11/23 03:17:31;;;;;;;;;;;6.80;99.90;;;;;;5052030;28;20063;-62
2022/11/23 03:20:00;;;;;;;;;;;6.80;99.90;;;;;;5051151;28;19972;-62
2022/11/23 03:22:28;;;;;;;;;;;6.80;99.90;;;;;;5051361;28;19972;-62
2022/11/23 03:24:56;;;;;;;;;;;6.80;99.90;;;;;;5052205;28;19968;-62
2022/11/23 03:27:24;;;;;;;;;;;6.90;99.90;;;;;;5052056;28;19968;-62
2022/11/23 03:29:51;;;;;;;;;;;6.80;99.90;;;;;;5063273;22;19964;-66
2022/11/23 03:32:19;;;;;;;;;;;6.80;99.90;;;;;;5031783;28;20058;-67
2022/11/23 03:34:47;;;;;;;;;;;6.70;99.90;;;;;;5031873;28;20016;-66
2022/11/23 03:37:16;;;;;;;;;;;6.70;99.90;;;;;;5031739;28;19982;-67
2022/11/23 03:39:44;;;;;;;;;;;6.70;99.90;;;;;;5030889;28;19969;-67
2022/11/23 03:42:14;;;;;;;;;;;6.90;99.90;;;;;;5033054;28;19969;-67
2022/11/23 03:44:42;;;;;;;;;;;6.90;99.90;;;;;;5031456;28;19964;-67
2022/11/23 03:47:10;;;;;;;;;;;7.00;99.90;;;;;;5031721;28;19968;-68
2022/11/23 03:49:38;;;;;;;;;;;7.00;99.90;;;;;;5030712;28;19969;-67
2022/11/23 03:52:06;;;;;;;;;;;6.90;99.90;;;;;;5031866;28;19969;-67
2022/11/23 03:54:35;;;;;;;;;;;6.90;99.90;;;;;;5031622;28;19980;-67
2022/11/23 03:57:03;;;;;;;;;;;6.90;99.90;;;;;;5031502;28;19968;-67
2022/11/23 03:59:30;;;;;;;;;;;6.90;99.90;;;;;;5031073;28;19972;-68
2022/11/23 04:01:58;;;;;;;;;;;6.90;99.90;;;;;;5031295;28;19972;-68
2022/11/23 04:04:26;;;;;;;;;;;6.80;99.90;;;;;;5031593;28;19972;-66
2022/11/23 04:06:54;;;;;;;;;;;6.80;99.90;;;;;;5031661;28;19975;-66
2022/11/23 04:09:22;;;;;;;;;;;6.80;99.90;;;;;;5031459;28;19976;-67
2022/11/23 04:11:51;;;;;;;;;;;6.80;99.90;;;;;;5030560;28;20429;-66
2022/11/23 04:14:18;;;;;;;;;;;6.90;99.90;;;;;;5031050;28;20344;-67
2022/11/23 04:16:46;;;;;;;;;;;7.00;99.90;;;;;;5030637;28;19969;-66
2022/11/23 04:19:14;;;;;;;;;;;7.00;99.90;;;;;;5011701;28;20087;-67
2022/11/23 04:21:41;;;;;;;;;;;7.00;99.90;;;;;;5011225;28;20319;-66
2022/11/23 04:24:09;;;;;;;;;;;7.10;99.90;;;;;;5011825;28;19973;-66
2022/11/23 04:26:37;;;;;;;;;;;7.10;99.90;;;;;;5011653;28;19983;-66
2022/11/23 04:29:06;;;;;;;;;;;7.10;99.90;;;;;;5011218;28;19969;-67
2022/11/23 04:31:34;;;;;;;;;;;7.20;99.90;;;;;;5028248;28;20507;-66
2022/11/23 04:34:01;;;;;;;;;;;7.10;99.90;;;;;;5013628;28;19968;-66
2022/11/23 04:36:29;;;;;;;;;;;7.10;99.90;;;;;;5015456;28;20063;-67
2022/11/23 04:38:57;;;;;;;;;;;7.10;99.90;;;;;;5015078;28;19968;-67
2022/11/23 04:41:25;;;;;;;;;;;6.90;99.90;;;;;;5014541;28;19972;-66
2022/11/23 04:43:52;;;;;;;;;;;6.90;99.90;;;;;;5029312;28;20386;-66
2022/11/23 04:46:21;;;;;;;;;;;7.00;99.90;;;;;;5034781;28;19991;-66
2022/11/23 04:48:49;;;;;;;;;;;7.00;99.90;;;;;;5034679;28;19973;-66
2022/11/23 04:51:17;;;;;;;;;;;7.00;99.90;;;;;;5034320;28;19972;-66
2022/11/23 04:53:44;;;;;;;;;;;6.90;99.90;;;;;;5034595;28;19968;-66
2022/11/23 04:56:12;;;;;;;;;;;6.80;99.90;;;;;;5034680;28;19975;-67
2022/11/23 04:58:40;;;;;;;;;;;6.80;99.90;;;;;;5034450;28;20493;-67
2022/11/23 05:01:08;;;;;;;;;;;6.90;99.90;;;;;;5033913;28;19968;-66
2022/11/23 05:03:37;;;;;;;;;;;7.00;99.90;;;;;;5034547;28;20020;-66
2022/11/23 05:06:06;;;;;;;;;;;7.10;99.90;;;;;;5033397;28;20060;-67
2022/11/23 05:08:33;;;;;;;;;;;7.20;99.90;;;;;;5033935;28;20497;-66
2022/11/23 05:11:01;;;;;;;;;;;7.20;99.90;;;;;;5033542;28;20429;-67
2022/11/23 05:13:29;;;;;;;;;;;7.20;99.90;;;;;;5020433;28;20568;-66
2022/11/23 05:15:56;;;;;;;;;;;7.20;99.90;;;;;;5020282;28;19977;-66
2022/11/23 05:18:24;;;;;;;;;;;7.10;99.90;;;;;;5020967;28;20742;-67
2022/11/23 05:20:53;;;;;;;;;;;7.00;99.90;;;;;;5018454;28;19978;-66
2022/11/23 05:23:21;;;;;;;;;;;7.00;99.90;;;;;;5020762;28;20389;-66
2022/11/23 05:25:49;;;;;;;;;;;6.90;99.90;;;;;;5019912;28;19971;-66
2022/11/23 05:28:17;;;;;;;;;;;6.90;99.90;;;;;;5021405;28;19965;-66
2022/11/23 05:31:05;;;;;;;;;;;6.90;99.90;;;;;;5019602;28;19979;-66
2022/11/23 05:33:33;;;;;;;;;;;6.80;99.90;;;;;;5021412;28;20069;-66
2022/11/23 05:36:02;;;;;;;;;;;6.80;99.90;;;;;;5021221;28;20062;-66
2022/11/23 05:38:29;;;;;;;;;;;6.80;99.90;;;;;;5021531;28;19976;-66
2022/11/23 05:40:57;;;;;;;;;;;6.80;99.90;;;;;;5017980;28;19973;-66
2022/11/23 05:43:25;;;;;;;;;;;6.70;99.90;;;;;;5020122;28;20426;-67
2022/11/23 05:45:53;;;;;;;;;;;6.80;99.90;;;;;;5019175;28;19978;-66
2022/11/23 05:48:20;;;;;;;;;;;6.70;99.90;;;;;;5020449;28;19964;-67
2022/11/23 05:50:50;;;;;;;;;;;6.70;99.90;;;;;;5017036;28;19964;-67
2022/11/23 05:53:19;;;;;;;;;;;6.70;99.90;;;;;;5019524;28;19968;-66
2022/11/23 05:55:46;;;;;;;;;;;6.70;99.90;;;;;;5021297;28;19964;-66
2022/11/23 05:58:14;;;;;;;;;;;6.70;99.90;;;;;;5021433;28;19964;-66
2022/11/23 06:00:42;;;;;;;;;;;6.70;99.90;;;;;;5018626;28;19972;-67
2022/11/23 06:03:10;;;;;;;;;;;6.70;99.90;;;;;;5020200;28;19972;-67
2022/11/23 06:05:38;;;;;;;;;;;6.60;99.90;;;;;;5020311;28;19973;-66
2022/11/23 06:08:05;;;;;;;;;;;6.70;99.90;;;;;;5021132;28;19979;-66
2022/11/23 06:10:34;;;;;;;;;;;6.60;99.90;;;;;;5018011;28;19979;-66
2022/11/23 06:13:03;;;;;;;;;;;6.60;99.90;;;;;;5020115;28;19972;-66
2022/11/23 06:15:31;;;;;;;;;;;6.60;99.90;;;;;;5019911;28;19972;-66
2022/11/23 06:17:59;;;;;;;;;;;6.60;99.90;;;;;;5020537;28;20465;-66
2022/11/23 06:20:27;;;;;;;;;;;6.60;99.90;;;;;;5018795;28;19976;-65
2022/11/23 06:22:55;;;;;;;;;;;6.60;99.90;;;;;;5019581;28;19972;-65
2022/11/23 06:25:23;;;;;;;;;;;6.60;99.90;;;;;;5019865;28;20377;-66
2022/11/23 06:27:56;;;;;;;;;;;6.70;99.90;;;;;;5019602;28;19964;-67
2022/11/23 06:30:24;;;;;;;;;;;6.70;99.90;;;;;;5016630;28;19977;-66
2022/11/23 06:32:52;;;;;;;;;;;6.70;99.90;;;;;;5019644;28;19973;-66
2022/11/23 06:35:20;;;;;;;;;;;6.70;99.90;;;;;;5019776;28;19972;-66
2022/11/23 06:37:48;;;;;;;;;;;6.70;99.90;;;;;;5017498;28;19971;-66
2022/11/23 06:40:17;;;;;;;;;;;6.70;99.90;;;;;;5017612;28;19964;-66
2022/11/23 06:42:44;;;;;;;;;;;6.60;99.90;;;;;;5018937;28;19975;-66
2022/11/23 06:45:13;;;;;;;;;;;6.70;99.90;;;;;;5019637;28;19972;-65
2022/11/23 06:47:42;;;;;;;;;;;6.70;99.90;;;;;;5018636;28;19972;-66
2022/11/23 06:50:10;;;;;;;;;;;6.70;99.90;;;;;;5017360;28;19969;-66
2022/11/23 06:52:38;;;;;;;;;;;6.70;99.90;;;;;;5019335;28;19983;-66
2022/11/23 06:55:06;;;;;;;;;;;6.70;99.90;;;;;;5018023;28;19972;-66
2022/11/23 06:57:34;;;;;;;;;;;6.90;99.90;;;;;;5019452;28;19987;-66
2022/11/23 07:00:01;;;;;;;;;;;7.70;99.90;;;;;;5017254;28;19979;-67
2022/11/23 07:02:30;;;;;;;;;;;8.30;99.90;;;;;;5018699;28;19976;-67
2022/11/23 07:04:58;;;;;;;;;;;9.00;99.90;;;;;;5018332;28;19972;-67
2022/11/23 07:07:26;;;;;;;;;;;9.70;99.90;;;;;;5018226;28;19973;-67
2022/11/23 07:09:54;;;;;;;;;;;9.90;99.90;;;;;;5017215;28;20098;-67
2022/11/23 07:12:24;;;;;;;;;;;10.20;99.90;;;;;;5018806;28;20019;-67
2022/11/23 07:14:52;;;;;;;;;;;10.50;99.90;;;;;;5018584;28;19976;-67
2022/11/23 07:17:20;;;;;;;;;;;10.40;99.90;;;;;;5024004;28;19970;-66
2022/11/23 07:19:49;;;;;;;;;;;11.40;99.90;;;;;;5021696;28;19979;-66
2022/11/23 07:22:16;;;;;;;;;;;10.60;99.90;;;;;;5031463;28;20055;-66
2022/11/23 07:24:44;;;;;;;;;;;9.60;99.90;;;;;;5030219;28;19971;-66
2022/11/23 07:27:13;;;;;;;;;;;8.70;99.90;;;;;;5031956;28;19969;-66
2022/11/23 07:29:41;;;;;;;;;;;8.20;99.90;;;;;;5030988;28;19968;-66
2022/11/23 07:32:09;;;;;;;;;;;7.90;99.90;;;;;;5031857;28;20000;-66
2022/11/23 07:34:37;;;;;;;;;;;7.70;99.90;;;;;;5031680;28;20386;-67
2022/11/23 07:37:06;;;;;;;;;;;7.60;99.90;;;;;;5031924;28;19971;-66
2022/11/23 07:39:33;;;;;;;;;;;7.50;99.90;;;;;;5031271;28;19974;-66
2022/11/23 07:42:21;;;;;;;;;;;7.40;99.90;;;;;;5031792;28;19976;-66
2022/11/23 07:45:00;;;;;;;;;;;7.30;99.90;;;;;;5031572;28;20414;-66
2022/11/23 07:47:28;;;;;;;;;;;7.20;99.90;;;;;;5031900;28;20075;-66
2022/11/23 07:49:55;;;;;;;;;;;7.20;99.90;;;;;;5030860;28;19975;-66
2022/11/23 07:52:25;;;;;;;;;;;7.20;99.90;;;;;;5023181;28;20529;-66
2022/11/23 07:54:52;;;;;;;;;;;7.10;99.90;;;;;;5031373;28;19975;-66
2022/11/23 07:57:20;;;;;;;;;;;7.00;99.90;;;;;;5031531;28;19968;-66
2022/11/23 07:59:48;;;;;;;;;;;6.90;99.90;;;;;;5030942;28;20501;-66
2022/11/23 08:02:16;;;;;;;;;;;6.90;99.90;;;;;;5032122;28;19968;-66
2022/11/23 08:04:43;;;;;;;;;;;6.80;99.90;;;;;;5031381;28;19972;-66
2022/11/23 08:07:11;;;;;;;;;;;6.80;99.90;;;;;;5031482;28;19968;-66
2022/11/23 08:09:40;;;;;;;;;;;6.90;99.90;;;;;;5033076;28;19972;-66
2022/11/23 08:12:08;;;;;;;;;;;6.90;99.90;;;;;;5035427;28;20509;-66
2022/11/23 08:14:36;;;;;;;;;;;6.90;99.90;;;;;;5035547;28;19975;-66
2022/11/23 08:17:03;;;;;;;;;;;6.90;99.90;;;;;;5035739;28;19991;-66
2022/11/23 08:19:31;;;;;;;;;;;6.90;99.90;;;;;;5035010;28;19977;-66
2022/11/23 08:21:59;;;;;;;;;;;6.90;99.90;;;;;;5026618;28;20426;-66
2022/11/23 08:24:26;;;;;;;;;;;6.90;99.90;;;;;;5035220;28;19979;-66
2022/11/23 08:26:55;;;;;;;;;;;7.00;99.90;;;;;;5035133;28;19968;-66
2022/11/23 08:29:23;;;;;;;;;;;6.90;99.90;;;;;;5035163;28;20425;-66
2022/11/23 08:31:51;;;;;;;;;;;7.00;99.90;;;;;;5034557;28;19975;-66
2022/11/23 08:34:19;;;;;;;;;;;7.00;99.90;;;;;;5035282;28;20071;-66
2022/11/23 08:36:47;;;;;;;;;;;7.00;99.90;;;;;;5034476;28;19968;-66
2022/11/23 08:39:16;;;;;;;;;;;7.10;99.90;;;;;;5035022;28;20023;-66
2022/11/23 08:41:43;;;;;;;;;;;7.10;99.90;;;;;;5034418;28;20323;-66
2022/11/23 08:44:12;;;;;;;;;;;7.10;99.90;;;;;;5035110;28;19979;-66
2022/11/23 08:46:40;;;;;;;;;;;7.20;99.90;;;;;;5034785;28;19972;-66
2022/11/23 08:49:08;;;;;;;;;;;7.30;99.90;;;;;;5034850;28;20338;-66
2022/11/23 08:51:36;;;;;;;;;;;7.40;99.90;;;;;;5025642;28;19968;-66
2022/11/23 08:54:03;;;;;;;;;;;7.40;99.90;;;;;;5034759;28;20455;-66
2022/11/23 08:56:31;;;;;;;;;;;7.50;99.90;;;;;;5034410;28;19973;-66
2022/11/23 08:58:59;;;;;;;;;;;7.60;99.90;;;;;;5034554;28;19975;-66
2022/11/23 09:01:28;;;;;;;;;;;8.00;99.90;;;;;;5034237;28;20063;-66
2022/11/23 09:03:56;;;;;;;;;;;8.40;99.90;;;;;;5034489;28;20025;-66
2022/11/23 09:06:27;;;;;;;;;;;8.90;99.90;;;;;;5034124;28;19969;-66
2022/11/23 09:08:55;;;;;;;;;;;9.40;99.90;;;;;;5034888;28;19976;-66
2022/11/23 09:11:25;;;;;;;;;;;9.70;99.90;;;;;;5033782;28;20002;-66
2022/11/23 09:13:52;;;;;;;;;;;9.80;99.90;;;;;;5034358;28;19990;-66
2022/11/23 09:16:20;;;;;;;;;;;9.80;99.90;;;;;;5034034;28;20026;-66
2022/11/23 09:18:49;;;;;;;;;;;9.90;99.90;;;;;;5034459;28;19973;-66
2022/11/23 09:21:17;;;;;;;;;;;10.10;99.90;;;;;;5024211;28;20327;-66
2022/11/23 09:23:45;;;;;;;;;;;10.30;99.90;;;;;;5034164;28;20059;-66
2022/11/23 09:26:12;;;;;;;;;;;10.40;99.90;;;;;;5034037;28;19975;-66
2022/11/23 09:28:40;;;;;;;;;;;10.70;99.90;;;;;;5034121;28;20441;-66
2022/11/23 09:31:11;;;;;;;;;;;10.90;99.90;;;;;;5055647;22;20058;-62
2022/11/23 09:33:39;;;;;;;;;;;10.90;99.90;;;;;;5038152;28;19995;-62
2022/11/23 09:36:09;;;;;;;;;;;10.60;99.90;;;;;;5053375;28;19968;-62
2022/11/23 09:38:36;;;;;;;;;;;10.50;99.90;;;;;;5053760;28;19998;-63
2022/11/23 09:41:30;;;;;;;;;;;10.60;99.90;;;;;;5071914;28;19981;-62
2022/11/23 09:44:01;;;;;;;;;;;10.60;99.90;;;;;;5073730;28;20471;-62
2022/11/23 09:46:39;;;;;;;;;;;10.70;99.90;;;;;;5073807;28;19968;-63
2022/11/23 09:49:17;;;;;;;;;;;10.50;99.90;;;;;;5073717;28;19982;-62
2022/11/23 09:51:47;;;;;;;;;;;10.50;99.90;;;;;;5063810;28;19964;-62
2022/11/23 09:54:21;;;;;;;;;;;10.90;99.90;;;;;;5070490;28;20344;-62
2022/11/23 09:56:51;;;;;;;;;;;11.00;99.90;;;;;;5073284;28;20351;-62
2022/11/23 09:59:33;;;;;;;;;;;11.10;99.90;;;;;;5073553;28;19976;-62
2022/11/23 10:02:01;;;;;;;;;;;11.20;99.90;;;;;;5073487;28;19974;-63
2022/11/23 10:04:31;;;;;;;;;;;11.30;99.90;;;;;;5073368;28;19971;-63
2022/11/23 10:07:03;;;;;;;;;;;11.50;99.90;;;;;;5072737;28;19979;-63
2022/11/23 10:09:36;;;;;;;;;;;11.40;99.90;;;;;;5073034;28;20026;-62
2022/11/23 10:12:10;;;;;;;;;;;11.40;99.90;;;;;;5073464;28;19971;-63
2022/11/23 10:14:42;;;;;;;;;;;11.50;99.90;;;;;;5073218;28;19968;-62
2022/11/23 10:17:15;;;;;;;;;;;11.60;99.90;;;;;;5073439;28;20070;-63
2022/11/23 10:19:49;;;;;;;;;;;11.60;99.90;;;;;;5071910;28;19982;-63
2022/11/23 10:22:21;;;;;;;;;;;11.60;99.90;;;;;;5061733;28;20338;-62
2022/11/23 10:24:51;;;;;;;;;;;11.60;99.90;;;;;;5073029;28;19967;-63
2022/11/23 10:27:19;;;;;;;;;;;11.70;99.90;;;;;;5072991;28;19968;-62
2022/11/23 10:29:48;;;;;;;;;;;11.70;99.90;;;;;;5071750;28;19978;-62
2022/11/23 10:32:31;;;;;;;;;;;11.90;99.90;;;;;;5072868;28;20444;-62
2022/11/23 10:35:03;;;;;;;;;;;12.00;99.90;;;;;;5073021;28;19972;-63
2022/11/23 10:37:33;;;;;;;;;;;11.80;99.90;;;;;;5072625;28;19968;-62
2022/11/23 10:40:00;;;;;;;;;;;11.70;99.90;;;;;;5072002;28;19967;-63
2022/11/23 10:42:31;;;;;;;;;;;11.90;99.90;;;;;;5072528;28;19971;-62
2022/11/23 10:44:59;;;;;;;;;;;11.80;99.90;;;;;;5072790;28;19978;-63
2022/11/23 10:47:34;;;;;;;;;;;11.80;99.90;;;;;;5072461;28;19978;-62
2022/11/23 10:50:02;;;;;;;;;;;11.80;99.90;;;;;;5068771;28;19972;-62
2022/11/23 10:52:32;;;;;;;;;;;11.80;99.90;;;;;;5063035;28;19975;-61
2022/11/23 10:55:01;;;;;;;;;;;11.90;99.90;;;;;;5072411;28;19976;-62
2022/11/23 10:57:31;;;;;;;;;;;12.10;99.90;;;;;;5072199;28;19975;-62
2022/11/23 10:59:59;;;;;;;;;;;12.10;99.90;;;;;;5071487;28;19971;-63
2022/11/23 11:02:27;;;;;;;;;;;12.20;99.90;;;;;;5072258;28;19975;-63
2022/11/23 11:05:10;;;;;;;;;;;12.60;99.90;;;;;;5072265;28;19976;-63
2022/11/23 11:07:39;;;;;;;;;;;12.80;99.90;;;;;;5071879;28;19974;-63
2022/11/23 11:10:28;;;;;;;;;;;13.10;99.90;;;;;;5071628;28;19979;-62
2022/11/23 11:12:56;;;;;;;;;;;12.90;99.90;;;;;;5072171;28;19978;-63
2022/11/23 11:15:24;;;;;;;;;;;13.20;99.90;;;;;;5072203;28;19974;-62
2022/11/23 11:17:54;;;;;;;;;;;13.10;99.90;;;;;;5071807;28;19978;-63
2022/11/23 11:20:24;;;;;;;;;;;13.30;99.90;;;;;;5066567;28;19969;-63
2022/11/23 11:22:53;;;;;;;;;;;13.40;99.90;;;;;;5063691;28;20066;-63
2022/11/23 11:25:27;;;;;;;;;;;13.30;99.90;;;;;;5072241;28;19980;-63
2022/11/23 11:27:55;;;;;;;;;;;13.30;99.90;;;;;;5071917;28;19966;-62
2022/11/23 11:30:24;;;;;;;;;;;13.20;99.90;;;;;;5070834;28;20435;-63
2022/11/23 11:32:54;;;;;;;;;;;13.10;99.90;;;;;;5071857;28;19990;-63
2022/11/23 11:35:25;;;;;;;;;;;13.30;99.90;;;;;;5071993;28;19978;-63
2022/11/23 11:37:55;;;;;;;;;;;13.40;99.90;;;;;;5071387;28;19974;-63
2022/11/23 11:40:27;;;;;;;;;;;14.10;99.90;;;;;;5071093;28;19974;-63
2022/11/23 11:42:58;;;;;;;;;;;14.40;99.90;;;;;;5071296;28;20000;-63
2022/11/23 11:45:27;;;;;;;;;;;15.10;99.90;;;;;;5071755;28;19968;-63
2022/11/23 11:47:59;;;;;;;;;;;15.20;99.90;;;;;;5071484;28;19974;-63
2022/11/23 11:50:29;;;;;;;;;;;15.50;99.90;;;;;;5066489;28;19972;-63
2022/11/23 11:53:03;;;;;;;;;;;16.00;99.90;;;;;;5063189;28;19970;-63
2022/11/23 11:55:36;;;;;;;;;;;15.70;99.90;;;;;;5071753;28;20344;-64
2022/11/23 11:58:08;;;;;;;;;;;14.80;99.90;;;;;;5071516;28;19967;-63
2022/11/23 12:00:37;;;;;;;;;;;14.80;99.90;;;;;;5070933;28;20007;-62
2022/11/23 12:03:16;;;;;;;;;;;14.80;99.90;;;;;;5071648;28;19971;-63
2022/11/23 12:05:47;;;;;;;;;;;14.80;99.90;;;;;;5071189;28;20030;-63
2022/11/23 12:08:21;;;;;;;;;;;14.50;99.90;;;;;;5071323;28;19974;-63
2022/11/23 12:10:50;;;;;;;;;;;14.10;99.90;;;;;;5070798;28;19982;-63
2022/11/23 12:13:19;;;;;;;;;;;13.60;99.90;;;;;;5071434;28;20062;-62
2022/11/23 12:15:48;;;;;;;;;;;13.20;99.90;;;;;;5071329;28;19968;-65
2022/11/23 12:18:39;;;;;;;;;;;12.70;99.90;;;;;;5071080;28;20034;-63
2022/11/23 12:21:13;;;;;;;;;;;12.50;99.90;;;;;;5066114;28;20226;-63
2022/11/23 12:23:48;;;;;;;;;;;12.10;99.90;;;;;;5055863;28;19967;-63
2022/11/23 12:26:19;;;;;;;;;;;11.80;99.90;;;;;;5071220;28;20074;-62
2022/11/23 12:29:05;;;;;;;;;;;11.60;99.90;;;;;;5071243;28;19983;-63
2022/11/23 12:31:39;;;;;;;;;;;11.50;99.90;;;;;;5057409;28;19976;-62
2022/11/23 12:34:13;;;;;;;;;;;11.40;99.90;;;;;;5071331;28;19968;-63
2022/11/23 12:37:03;;;;;;;;;;;11.40;99.90;;;;;;5071018;28;20062;-63
2022/11/23 12:39:45;;;;;;;;;;;11.40;99.90;;;;;;5071413;28;19978;-61
2022/11/23 12:42:16;;;;;;;;;;;11.30;99.90;;;;;;5071139;28;20468;-63
2022/11/23 12:45:03;;;;;;;;;;;11.10;99.90;;;;;;5071175;28;20464;-62
2022/11/23 12:47:35;;;;;;;;;;;11.00;99.90;;;;;;5070779;28;19971;-63
2022/11/23 12:50:09;;;;;;;;;;;11.00;99.90;;;;;;5067276;28;20087;-63
2022/11/23 12:52:44;;;;;;;;;;;11.00;99.90;;;;;;5050907;28;20452;-63
2022/11/23 12:55:19;;;;;;;;;;;11.00;99.90;;;;;;5051327;28;20368;-62
2022/11/23 12:57:50;;;;;;;;;;;10.90;99.90;;;;;;5054503;28;20063;-63
2022/11/23 13:00:19;;;;;;;;;;;10.80;99.90;;;;;;5053927;28;20408;-62
2022/11/23 13:03:01;;;;;;;;;;;10.80;99.90;;;;;;5054613;28;19968;-62
2022/11/23 13:05:43;;;;;;;;;;;10.80;99.90;;;;;;5021748;28;19980;-62
2022/11/23 13:08:21;;;;;;;;;;;10.70;99.90;;;;;;5054281;28;19972;-63
2022/11/23 13:10:56;;;;;;;;;;;10.70;99.90;;;;;;5053594;28;20360;-62
2022/11/23 13:13:29;;;;;;;;;;;10.60;99.90;;;;;;5054585;28;19972;-62
2022/11/23 13:16:06;;;;;;;;;;;10.50;99.90;;;;;;5054491;28;19972;-62
2022/11/23 13:18:41;;;;;;;;;;;10.50;99.90;;;;;;5054047;28;19972;-63
2022/11/23 13:21:15;;;;;;;;;;;10.50;99.90;;;;;;5045732;28;19968;-62
2022/11/23 13:23:43;;;;;;;;;;;10.40;99.90;;;;;;5053881;28;20322;-63
2022/11/23 13:26:16;;;;;;;;;;;10.30;99.90;;;;;;5054049;28;19971;-63
2022/11/23 13:28:45;;;;;;;;;;;10.20;99.90;;;;;;5053924;28;20051;-63
2022/11/23 13:31:22;;;;;;;;;;;10.20;99.90;;;;;;5053043;28;19979;-63
2022/11/23 13:33:51;;;;;;;;;;;10.20;99.90;;;;;;5054181;28;20058;-63
2022/11/23 13:36:39;;;;;;;;;;;10.20;99.90;;;;;;5053931;28;19978;-61
2022/11/23 13:39:44;;;;;;;;;;;10.20;99.90;;;;;;5053823;28;20345;-62
2022/11/23 13:42:14;;;;;;;;;;;10.20;99.90;;;;;;5053130;28;19979;-62
2022/11/23 13:44:42;;;;;;;;;;;10.20;99.90;;;;;;5053809;28;19975;-62
2022/11/23 13:47:27;;;;;;;;;;;10.20;99.90;;;;;;5053603;28;19979;-63
2022/11/23 13:50:07;;;;;;;;;;;10.20;99.90;;;;;;5053009;28;19974;-62
2022/11/23 13:52:35;;;;;;;;;;;10.20;99.90;;;;;;5061712;28;19970;-62
2022/11/23 13:55:07;;;;;;;;;;;10.20;99.90;;;;;;5069067;28;19999;-63
2022/11/23 13:57:38;;;;;;;;;;;10.10;99.90;;;;;;5073521;28;20348;-62
2022/11/23 14:00:25;;;;;;;;;;;10.10;99.90;;;;;;5072589;28;20472;-63
2022/11/23 14:03:12;;;;;;;;;;;10.10;99.90;;;;;;5073869;28;20373;-63
2022/11/23 14:05:55;;;;;;;;;;;10.00;99.90;;;;;;5073471;28;20356;-62
2022/11/23 14:08:24;;;;;;;;;;;10.00;99.90;;;;;;5073185;28;19967;-63
2022/11/23 14:10:52;;;;;;;;;;;9.90;99.90;;;;;;5072603;28;19974;-62
2022/11/23 14:13:23;;;;;;;;;;;9.90;99.90;;;;;;5072956;28;19968;-62
2022/11/23 14:15:54;;;;;;;;;;;9.80;99.90;;;;;;5073319;28;20022;-63
2022/11/23 14:18:38;;;;;;;;;;;9.80;99.90;;;;;;5072860;28;19971;-63
2022/11/23 14:21:10;;;;;;;;;;;9.70;99.90;;;;;;5066091;28;20006;-62
2022/11/23 14:23:49;;;;;;;;;;;9.70;99.90;;;;;;5053093;28;19964;-63
2022/11/23 14:26:21;;;;;;;;;;;9.70;99.90;;;;;;5053174;28;19972;-63
2022/11/23 14:28:59;;;;;;;;;;;9.60;99.90;;;;;;5052933;28;19986;-62
2022/11/23 14:31:33;;;;;;;;;;;9.60;99.90;;;;;;5052056;28;19975;-63
2022/11/23 14:34:04;;;;;;;;;;;9.60;99.90;;;;;;5052886;28;19995;-63
2022/11/23 14:36:37;;;;;;;;;;;9.50;99.90;;;;;;5052785;28;19968;-62
2022/11/23 14:39:32;;;;;;;;;;;9.50;99.90;;;;;;5052575;28;19968;-62
2022/11/23 14:42:01;;;;;;;;;;;9.50;99.90;;;;;;5052658;28;19975;-63
2022/11/23 14:44:31;;;;;;;;;;;9.50;99.90;;;;;;5052658;28;19978;-63